createdAt,value
2017-10-01T00:01:44.587Z,58.80
2017-10-01T00:04:12.873Z,58.80
2017-10-01T00:06:41.144Z,58.60
2017-10-01T00:09:09.421Z,58.80
2017-10-01T00:11:37.733Z,58.60
2017-10-01T00:14:06.589Z,58.80
2017-10-01T00:16:34.854Z,58.80
2017-10-01T00:19:03.145Z,58.90
2017-10-01T00:21:31.437Z,58.60
2017-10-01T00:23:59.759Z,58.80
2017-10-01T00:26:28.205Z,58.80
2017-10-01T00:28:56.460Z,58.90
2017-10-01T00:31:24.732Z,58.30
2017-10-01T00:33:53.231Z,58.50
2017-10-01T00:36:21.506Z,58.00
2017-10-01T00:38:49.788Z,58.20
2017-10-01T00:41:18.093Z,58.80
2017-10-01T00:43:46.404Z,58.50
2017-10-01T00:46:14.682Z,58.60
2017-10-01T00:48:42.996Z,58.30
2017-10-01T00:51:11.260Z,58.00
2017-10-01T00:53:39.542Z,58.30
2017-10-01T00:56:07.866Z,58.20
2017-10-01T00:58:36.132Z,58.20
2017-10-01T01:01:04.420Z,58.30
2017-10-01T01:03:32.752Z,58.50
2017-10-01T01:06:00.996Z,58.50
2017-10-01T01:08:29.297Z,58.50
2017-10-01T01:10:57.578Z,58.20
2017-10-01T01:13:25.859Z,58.50
2017-10-01T01:15:54.538Z,58.20
2017-10-01T01:18:22.832Z,58.20
2017-10-01T01:20:51.696Z,57.70
2017-10-01T01:23:19.961Z,57.70
2017-10-01T01:25:48.250Z,58.00
2017-10-01T01:28:16.604Z,58.30
2017-10-01T01:30:44.965Z,58.50
2017-10-01T01:33:13.220Z,57.70
2017-10-01T01:35:41.509Z,57.40
2017-10-01T01:38:09.966Z,57.40
2017-10-01T01:40:38.630Z,57.40
2017-10-01T01:43:06.913Z,57.40
2017-10-01T01:45:35.185Z,57.60
2017-10-01T01:48:03.481Z,57.90
2017-10-01T01:50:31.768Z,58.00
2017-10-01T01:53:00.064Z,57.90
2017-10-01T01:55:28.374Z,57.60
2017-10-01T01:57:56.639Z,57.60
2017-10-01T02:00:24.942Z,58.00
2017-10-01T02:02:53.616Z,58.00
2017-10-01T02:05:22.300Z,58.00
2017-10-01T02:07:50.592Z,58.30
2017-10-01T02:10:19.045Z,58.30
2017-10-01T02:12:47.294Z,58.50
2017-10-01T02:15:15.597Z,58.60
2017-10-01T02:17:44.355Z,58.60
2017-10-01T02:20:12.650Z,58.60
2017-10-01T02:22:41.590Z,58.30
2017-10-01T02:25:09.890Z,58.50
2017-10-01T02:27:38.180Z,58.60
2017-10-01T02:30:06.465Z,58.60
2017-10-01T02:32:34.782Z,58.80
2017-10-01T02:35:03.147Z,59.10
2017-10-01T02:37:31.412Z,59.10
2017-10-01T02:39:59.692Z,59.20
2017-10-01T02:42:27.997Z,59.20
2017-10-01T02:44:56.698Z,59.20
2017-10-01T02:47:25.381Z,59.20
2017-10-01T02:49:53.680Z,59.20
2017-10-01T02:52:21.964Z,59.20
2017-10-01T02:54:51.891Z,59.40
2017-10-01T02:57:20.306Z,60.00
2017-10-01T02:59:51.214Z,60.10
2017-10-01T03:02:20.146Z,60.40
2017-10-01T03:04:48.420Z,60.40
2017-10-01T03:07:17.198Z,60.40
2017-10-01T03:09:46.014Z,60.40
2017-10-01T03:12:14.263Z,60.30
2017-10-01T03:14:42.580Z,59.80
2017-10-01T03:17:10.844Z,59.80
2017-10-01T03:19:39.497Z,59.80
2017-10-01T03:22:07.791Z,60.00
2017-10-01T03:24:36.063Z,60.10
2017-10-01T03:27:04.717Z,59.40
2017-10-01T03:29:32.990Z,59.40
2017-10-01T03:32:01.278Z,59.80
2017-10-01T03:34:29.611Z,60.30
2017-10-01T03:36:58.467Z,60.60
2017-10-01T03:39:26.790Z,60.60
2017-10-01T03:41:55.068Z,60.30
2017-10-01T03:44:23.313Z,61.00
2017-10-01T03:46:51.577Z,60.60
2017-10-01T03:49:20.159Z,61.00
2017-10-01T03:51:48.440Z,60.80
2017-10-01T03:54:16.699Z,61.00
2017-10-01T03:56:44.998Z,61.20
2017-10-01T03:59:13.660Z,61.30
2017-10-01T04:01:41.929Z,61.30
2017-10-01T04:04:10.182Z,61.50
2017-10-01T04:06:38.473Z,61.70
2017-10-01T04:09:07.149Z,61.00
2017-10-01T04:11:35.394Z,60.80
2017-10-01T04:14:03.654Z,61.20
2017-10-01T04:16:32.376Z,60.80
2017-10-01T04:19:00.660Z,60.60
2017-10-01T04:21:28.924Z,60.30
2017-10-01T04:23:57.326Z,60.40
2017-10-01T04:26:25.576Z,60.10
2017-10-01T04:28:53.864Z,60.30
2017-10-01T04:31:22.152Z,60.10
2017-10-01T04:33:50.460Z,60.10
2017-10-01T04:36:19.113Z,61.30
2017-10-01T04:38:47.425Z,61.30
2017-10-01T04:41:16.083Z,61.50
2017-10-01T04:43:44.363Z,61.50
2017-10-01T04:46:12.635Z,62.40
2017-10-01T04:48:41.663Z,62.60
2017-10-01T04:51:10.312Z,62.10
2017-10-01T04:53:38.585Z,62.10
2017-10-01T04:56:06.869Z,61.20
2017-10-01T04:58:35.147Z,60.40
2017-10-01T05:01:03.415Z,59.50
2017-10-01T05:03:31.715Z,59.20
2017-10-01T05:06:00.393Z,60.10
2017-10-01T05:08:28.754Z,60.10
2017-10-01T05:10:57.029Z,60.00
2017-10-01T05:13:25.936Z,60.10
2017-10-01T05:15:54.245Z,59.80
2017-10-01T05:18:22.552Z,59.70
2017-10-01T05:20:50.804Z,60.30
2017-10-01T05:23:19.076Z,60.60
2017-10-01T05:25:47.380Z,59.70
2017-10-01T05:28:15.653Z,59.50
2017-10-01T05:30:45.060Z,59.10
2017-10-01T05:33:13.337Z,58.90
2017-10-01T05:35:41.623Z,58.50
2017-10-01T05:38:09.896Z,58.20
2017-10-01T05:40:38.177Z,59.40
2017-10-01T05:43:06.520Z,60.30
2017-10-01T05:45:34.794Z,61.20
2017-10-01T05:48:03.203Z,61.50
2017-10-01T05:50:32.407Z,61.70
2017-10-01T05:53:00.696Z,62.80
2017-10-01T05:55:28.998Z,62.20
2017-10-01T05:57:57.372Z,61.20
2017-10-01T06:00:25.639Z,61.70
2017-10-01T06:02:53.888Z,61.50
2017-10-01T06:05:22.213Z,62.10
2017-10-01T06:07:50.903Z,61.00
2017-10-01T06:10:19.558Z,61.00
2017-10-01T06:12:47.883Z,61.00
2017-10-01T06:15:16.159Z,61.00
2017-10-01T06:17:44.413Z,61.70
2017-10-01T06:20:12.698Z,61.50
2017-10-01T06:22:40.981Z,60.60
2017-10-01T06:25:09.241Z,60.30
2017-10-01T06:27:37.947Z,58.90
2017-10-01T06:30:06.220Z,58.90
2017-10-01T06:32:34.709Z,60.00
2017-10-01T06:35:02.997Z,60.60
2017-10-01T06:37:32.127Z,60.40
2017-10-01T06:40:00.545Z,60.40
2017-10-01T06:42:30.262Z,62.10
2017-10-01T06:44:58.856Z,62.80
2017-10-01T06:47:27.168Z,63.50
2017-10-01T06:49:55.427Z,63.50
2017-10-01T06:52:23.723Z,63.90
2017-10-01T06:54:52.098Z,64.20
2017-10-01T06:57:20.382Z,64.00
2017-10-01T06:59:48.694Z,64.20
2017-10-01T07:02:17.360Z,64.60
2017-10-01T07:04:46.046Z,64.60
2017-10-01T07:07:14.707Z,64.60
2017-10-01T07:09:43.086Z,64.40
2017-10-01T07:12:11.947Z,64.40
2017-10-01T07:14:40.230Z,64.40
2017-10-01T07:17:08.526Z,64.40
2017-10-01T07:19:36.806Z,66.40
2017-10-01T07:22:05.078Z,67.30
2017-10-01T07:24:33.376Z,68.70
2017-10-01T07:27:01.655Z,67.30
2017-10-01T07:29:29.975Z,66.00
2017-10-01T07:31:58.351Z,63.70
2017-10-01T07:34:26.942Z,61.50
2017-10-01T07:36:55.297Z,61.20
2017-10-01T07:39:23.586Z,62.80
2017-10-01T07:41:51.851Z,64.20
2017-10-01T07:44:20.173Z,64.90
2017-10-01T07:46:48.455Z,62.20
2017-10-01T07:49:16.840Z,64.90
2017-10-01T07:51:45.243Z,66.40
2017-10-01T07:54:13.502Z,66.00
2017-10-01T07:56:42.563Z,65.30
2017-10-01T07:59:10.855Z,64.90
2017-10-01T08:01:39.242Z,64.90
2017-10-01T08:04:07.679Z,66.00
2017-10-01T08:06:36.026Z,66.00
2017-10-01T08:09:04.720Z,65.80
2017-10-01T08:11:33.048Z,65.80
2017-10-01T08:14:01.331Z,66.20
2017-10-01T08:16:29.823Z,65.30
2017-10-01T08:18:58.117Z,64.60
2017-10-01T08:21:26.406Z,65.80
2017-10-01T08:23:55.196Z,69.80
2017-10-01T08:26:23.987Z,70.50
2017-10-01T08:28:52.276Z,70.50
2017-10-01T08:31:20.649Z,71.20
2017-10-01T08:33:48.960Z,73.00
2017-10-01T08:36:17.291Z,74.30
2017-10-01T08:38:45.637Z,69.80
2017-10-01T08:41:14.095Z,71.80
2017-10-01T08:43:42.468Z,71.90
2017-10-01T08:46:10.745Z,70.90
2017-10-01T08:48:39.010Z,70.90
2017-10-01T08:51:07.489Z,70.30
2017-10-01T08:53:35.777Z,72.30
2017-10-01T08:56:04.132Z,73.00
2017-10-01T08:58:32.407Z,73.00
2017-10-01T09:01:00.855Z,72.30
2017-10-01T09:03:29.960Z,72.70
2017-10-01T09:05:58.220Z,72.70
2017-10-01T09:08:26.539Z,70.30
2017-10-01T09:10:55.726Z,73.40
2017-10-01T09:13:24.824Z,78.40
2017-10-01T09:15:53.517Z,87.40
2017-10-01T09:18:21.856Z,87.40
2017-10-01T09:20:50.206Z,90.40
2017-10-01T09:23:18.579Z,91.00
2017-10-01T09:25:47.058Z,92.70
2017-10-01T09:28:15.351Z,93.00
2017-10-01T09:30:43.754Z,92.70
2017-10-01T09:33:12.089Z,92.40
2017-10-01T09:35:40.361Z,93.00
2017-10-01T09:38:09.175Z,93.10
2017-10-01T09:40:37.991Z,93.50
2017-10-01T09:43:06.281Z,93.50
2017-10-01T09:45:35.495Z,94.00
2017-10-01T09:48:03.764Z,94.30
2017-10-01T09:50:32.051Z,94.40
2017-10-01T09:53:00.422Z,94.40
2017-10-01T09:55:29.568Z,94.50
2017-10-01T09:57:57.864Z,93.90
2017-10-01T10:00:26.400Z,94.50
2017-10-01T10:02:54.668Z,94.00
2017-10-01T10:05:23.158Z,93.40
2017-10-01T10:07:51.919Z,92.70
2017-10-01T10:10:20.731Z,93.40
2017-10-01T10:12:49.085Z,93.40
2017-10-01T10:15:17.766Z,92.50
2017-10-01T10:17:46.374Z,92.50
2017-10-01T10:20:14.641Z,92.00
2017-10-01T10:22:43.065Z,90.90
2017-10-01T10:25:11.406Z,90.60
2017-10-01T10:27:39.663Z,89.70
2017-10-01T10:30:08.050Z,87.00
2017-10-01T10:32:36.387Z,87.60
2017-10-01T10:35:05.354Z,84.90
2017-10-01T10:37:33.761Z,84.90
2017-10-01T10:40:02.452Z,77.70
2017-10-01T10:42:30.817Z,77.70
2017-10-01T10:44:59.104Z,73.20
2017-10-01T10:47:27.469Z,70.00
2017-10-01T10:49:55.794Z,68.30
2017-10-01T10:52:24.056Z,68.70
2017-10-01T10:54:52.331Z,70.10
2017-10-01T10:57:21.151Z,67.10
2017-10-01T10:59:49.764Z,67.10
2017-10-01T11:02:18.236Z,67.30
2017-10-01T11:04:46.594Z,66.20
2017-10-01T11:07:15.132Z,64.40
2017-10-01T11:09:43.398Z,64.60
2017-10-01T11:12:11.647Z,64.00
2017-10-01T11:14:39.977Z,64.00
2017-10-01T11:17:08.302Z,64.00
2017-10-01T11:19:36.627Z,64.40
2017-10-01T11:22:05.330Z,65.30
2017-10-01T11:24:33.752Z,65.30
2017-10-01T11:27:02.493Z,64.80
2017-10-01T11:29:31.201Z,64.80
2017-10-01T11:31:59.553Z,64.40
2017-10-01T11:34:27.870Z,63.50
2017-10-01T11:36:56.153Z,62.80
2017-10-01T11:39:24.892Z,63.00
2017-10-01T11:41:53.184Z,63.90
2017-10-01T11:44:21.522Z,66.60
2017-10-01T11:46:50.216Z,66.60
2017-10-01T11:49:18.538Z,66.70
2017-10-01T11:51:46.926Z,66.60
2017-10-01T11:54:15.164Z,65.30
2017-10-01T11:56:43.443Z,64.60
2017-10-01T11:59:12.186Z,64.80
2017-10-01T12:01:40.480Z,65.30
2017-10-01T12:04:08.850Z,66.20
2017-10-01T12:06:37.102Z,65.80
2017-10-01T12:09:05.381Z,66.20
2017-10-01T12:11:33.625Z,64.80
2017-10-01T12:14:01.873Z,65.80
2017-10-01T12:16:30.165Z,65.50
2017-10-01T12:18:58.449Z,66.20
2017-10-01T12:21:26.730Z,67.40
2017-10-01T12:23:55.029Z,69.10
2017-10-01T12:26:23.392Z,70.50
2017-10-01T12:28:51.681Z,70.90
2017-10-01T12:31:19.952Z,70.30
2017-10-01T12:33:48.244Z,70.30
2017-10-01T12:36:17.682Z,69.20
2017-10-01T12:38:46.009Z,69.80
2017-10-01T12:41:14.717Z,69.60
2017-10-01T12:43:43.155Z,69.60
2017-10-01T12:46:11.422Z,72.10
2017-10-01T12:48:39.782Z,73.00
2017-10-01T12:51:08.316Z,71.90
2017-10-01T12:53:36.558Z,71.40
2017-10-01T12:56:04.812Z,71.80
2017-10-01T12:58:33.507Z,68.20
2017-10-01T13:01:01.911Z,68.30
2017-10-01T13:03:30.238Z,66.40
2017-10-01T13:05:58.528Z,65.30
2017-10-01T13:08:26.897Z,65.10
2017-10-01T13:10:55.183Z,66.70
2017-10-01T13:13:23.916Z,67.40
2017-10-01T13:15:52.156Z,67.60
2017-10-01T13:18:20.479Z,68.90
2017-10-01T13:20:48.861Z,69.60
2017-10-01T13:23:17.545Z,69.20
2017-10-01T13:25:45.990Z,66.70
2017-10-01T13:28:14.250Z,65.30
2017-10-01T13:30:42.904Z,62.10
2017-10-01T13:33:11.291Z,62.10
2017-10-01T13:35:40.125Z,59.40
2017-10-01T13:38:09.264Z,59.40
2017-10-01T13:40:37.536Z,60.60
2017-10-01T13:43:05.788Z,59.50
2017-10-01T13:45:34.565Z,61.20
2017-10-01T13:48:02.889Z,59.80
2017-10-01T13:50:31.258Z,59.80
2017-10-01T13:52:59.576Z,60.10
2017-10-01T13:55:27.864Z,59.20
2017-10-01T13:57:56.134Z,59.10
2017-10-01T14:00:24.757Z,57.90
2017-10-01T14:02:53.198Z,59.10
2017-10-01T14:05:27.009Z,59.10
2017-10-01T14:07:55.285Z,59.50
2017-10-01T14:10:23.629Z,60.40
2017-10-01T14:12:51.926Z,60.00
2017-10-01T14:15:20.205Z,59.20
2017-10-01T14:17:48.486Z,59.10
2017-10-01T14:20:16.896Z,59.10
2017-10-01T14:22:45.377Z,59.20
2017-10-01T14:25:13.838Z,59.50
2017-10-01T14:27:42.094Z,59.50
2017-10-01T14:30:10.737Z,60.00
2017-10-01T14:32:39.165Z,59.40
2017-10-01T14:35:07.427Z,59.20
2017-10-01T14:37:35.684Z,58.90
2017-10-01T14:40:04.402Z,59.20
2017-10-01T14:42:32.728Z,59.20
2017-10-01T14:45:01.123Z,59.10
2017-10-01T14:47:29.426Z,58.50
2017-10-01T14:49:57.781Z,57.30
2017-10-01T14:52:26.131Z,57.00
2017-10-01T14:54:54.406Z,56.70
2017-10-01T14:57:22.668Z,56.40
2017-10-01T14:59:50.956Z,57.00
2017-10-01T15:02:19.295Z,57.70
2017-10-01T15:04:48.852Z,57.90
2017-10-01T15:07:17.419Z,57.90
2017-10-01T15:09:46.145Z,57.90
2017-10-01T15:12:14.815Z,57.90
2017-10-01T15:14:43.173Z,57.90
2017-10-01T15:17:11.913Z,58.80
2017-10-01T15:19:40.181Z,58.80
2017-10-01T15:22:08.480Z,59.50
2017-10-01T15:24:36.718Z,59.40
2017-10-01T15:27:04.989Z,59.70
2017-10-01T15:29:33.282Z,59.70
2017-10-01T15:32:01.935Z,58.00
2017-10-01T15:34:30.169Z,58.00
2017-10-01T15:36:58.445Z,58.80
2017-10-01T15:39:26.686Z,58.80
2017-10-01T15:41:55.325Z,59.80
2017-10-01T15:44:23.637Z,59.80
2017-10-01T15:46:52.001Z,61.70
2017-10-01T15:49:20.281Z,63.70
2017-10-01T15:51:48.584Z,63.10
2017-10-01T15:54:16.875Z,62.80
2017-10-01T15:56:45.210Z,64.20
2017-10-01T15:59:13.497Z,62.40
2017-10-01T16:01:41.885Z,63.10
2017-10-01T16:04:10.144Z,66.00
2017-10-01T16:06:38.435Z,70.50
2017-10-01T16:09:06.747Z,71.90
2017-10-01T16:11:35.367Z,74.30
2017-10-01T16:14:04.200Z,74.80
2017-10-01T16:16:32.935Z,75.90
2017-10-01T16:19:01.259Z,75.90
2017-10-01T16:21:29.489Z,76.40
2017-10-01T16:23:57.771Z,77.50
2017-10-01T16:26:26.040Z,76.80
2017-10-01T16:28:54.283Z,76.30
2017-10-01T16:31:22.968Z,77.30
2017-10-01T16:33:51.210Z,77.50
2017-10-01T16:36:19.737Z,77.30
2017-10-01T16:38:48.081Z,75.70
2017-10-01T16:41:16.732Z,72.70
2017-10-01T16:43:45.503Z,72.70
2017-10-01T16:46:13.734Z,71.20
2017-10-01T16:48:42.455Z,71.00
2017-10-01T16:51:10.733Z,71.00
2017-10-01T16:53:38.996Z,70.50
2017-10-01T16:56:07.339Z,68.90
2017-10-01T16:58:35.605Z,68.00
2017-10-01T17:01:04.334Z,68.50
2017-10-01T17:03:32.610Z,68.50
2017-10-01T17:06:01.749Z,68.30
2017-10-01T17:08:30.564Z,68.30
2017-10-01T17:10:59.275Z,69.10
2017-10-01T17:13:27.574Z,69.10
2017-10-01T17:15:55.811Z,69.80
2017-10-01T17:18:25.032Z,70.00
2017-10-01T17:20:53.288Z,70.00
2017-10-01T17:23:21.734Z,70.00
2017-10-01T17:25:49.981Z,69.60
2017-10-01T17:28:18.623Z,69.20
2017-10-01T17:30:46.900Z,69.40
2017-10-01T17:33:15.545Z,72.80
2017-10-01T17:35:43.966Z,73.00
2017-10-01T17:38:12.609Z,77.90
2017-10-01T17:40:40.849Z,77.90
2017-10-01T17:43:09.168Z,77.50
2017-10-01T17:45:37.648Z,78.00
2017-10-01T17:48:05.878Z,78.90
2017-10-01T17:50:34.178Z,79.80
2017-10-01T17:53:02.477Z,81.50
2017-10-01T17:55:31.584Z,80.60
2017-10-01T17:57:59.853Z,79.70
2017-10-01T18:00:28.414Z,80.60
2017-10-01T18:02:57.233Z,81.60
2017-10-01T18:05:25.528Z,81.60
2017-10-01T18:07:53.868Z,82.90
2017-10-01T18:10:22.354Z,82.20
2017-10-01T18:12:50.687Z,81.50
2017-10-01T18:15:19.170Z,81.80
2017-10-01T18:17:47.471Z,82.40
2017-10-01T18:20:15.730Z,82.40
2017-10-01T18:22:44.248Z,83.10
2017-10-01T18:25:12.604Z,82.20
2017-10-01T18:27:41.037Z,81.80
2017-10-01T18:30:09.766Z,83.40
2017-10-01T18:32:38.025Z,83.40
2017-10-01T18:35:06.276Z,82.00
2017-10-01T18:37:34.617Z,78.00
2017-10-01T18:40:02.888Z,78.60
2017-10-01T18:42:31.247Z,76.40
2017-10-01T18:44:59.566Z,73.70
2017-10-01T18:47:28.577Z,72.50
2017-10-01T18:49:57.024Z,73.00
2017-10-01T18:52:25.296Z,72.70
2017-10-01T18:54:53.564Z,71.40
2017-10-01T18:57:22.082Z,70.30
2017-10-01T18:59:50.390Z,70.00
2017-10-01T19:02:18.717Z,70.50
2017-10-01T19:04:47.191Z,71.40
2017-10-01T19:07:15.461Z,71.60
2017-10-01T19:09:43.712Z,71.80
2017-10-01T19:12:11.962Z,72.80
2017-10-01T19:14:40.647Z,75.20
2017-10-01T19:17:08.929Z,75.20
2017-10-01T19:19:37.292Z,75.20
2017-10-01T19:22:05.547Z,75.50
2017-10-01T19:24:33.831Z,75.50
2017-10-01T19:27:02.112Z,76.40
2017-10-01T19:29:30.346Z,75.00
2017-10-01T19:31:58.642Z,74.50
2017-10-01T19:34:26.899Z,73.00
2017-10-01T19:36:55.191Z,72.70
2017-10-01T19:39:23.515Z,73.00
2017-10-01T19:41:52.149Z,72.10
2017-10-01T19:44:20.921Z,70.90
2017-10-01T19:46:49.511Z,70.90
2017-10-01T19:49:18.667Z,70.50
2017-10-01T19:51:47.047Z,70.10
2017-10-01T19:54:15.303Z,70.70
2017-10-01T19:56:43.965Z,71.20
2017-10-01T19:59:12.266Z,71.20
2017-10-01T20:01:40.955Z,75.70
2017-10-01T20:04:10.232Z,75.70
2017-10-01T20:06:38.931Z,79.50
2017-10-01T20:09:08.524Z,79.50
2017-10-01T20:11:37.365Z,84.50
2017-10-01T20:14:05.614Z,84.50
2017-10-01T20:16:33.873Z,86.30
2017-10-01T20:19:02.225Z,88.30
2017-10-01T20:21:30.510Z,88.50
2017-10-01T20:23:58.830Z,88.10
2017-10-01T20:26:27.929Z,87.60
2017-10-01T20:28:56.199Z,87.00
2017-10-01T20:31:24.520Z,87.60
2017-10-01T20:33:52.785Z,86.50
2017-10-01T20:36:21.477Z,87.40
2017-10-01T20:38:49.765Z,88.80
2017-10-01T20:41:18.281Z,88.30
2017-10-01T20:43:46.689Z,88.80
2017-10-01T20:46:14.939Z,88.80
2017-10-01T20:48:43.343Z,87.40
2017-10-01T20:51:11.663Z,87.60
2017-10-01T20:53:40.403Z,84.90
2017-10-01T20:56:08.666Z,84.90
2017-10-01T20:58:37.342Z,86.30
2017-10-01T21:01:06.669Z,86.30
2017-10-01T21:03:34.945Z,86.30
2017-10-01T21:06:03.221Z,86.30
2017-10-01T21:08:31.493Z,86.70
2017-10-01T21:11:00.143Z,88.60
2017-10-01T21:13:30.452Z,88.60
2017-10-01T21:16:02.003Z,89.70
2017-10-01T21:18:30.355Z,89.00
2017-10-01T21:20:58.597Z,87.90
2017-10-01T21:23:26.901Z,88.80
2017-10-01T21:25:55.179Z,89.20
2017-10-01T21:28:23.437Z,90.40
2017-10-01T21:30:51.761Z,91.30
2017-10-01T21:33:20.052Z,91.20
2017-10-01T21:35:48.418Z,90.90
2017-10-01T21:38:16.681Z,90.90
2017-10-01T21:40:44.945Z,91.00
2017-10-01T21:43:13.198Z,91.10
2017-10-01T21:45:41.472Z,90.50
2017-10-01T21:48:10.112Z,90.60
2017-10-01T21:50:38.405Z,90.60
2017-10-01T21:53:06.747Z,90.90
2017-10-01T21:55:35.275Z,90.70
2017-10-01T21:58:03.516Z,91.20
2017-10-01T22:00:31.764Z,91.20
2017-10-01T22:03:00.731Z,92.20
2017-10-01T22:05:29.100Z,92.20
2017-10-01T22:07:57.849Z,91.40
2017-10-01T22:10:26.163Z,91.40
2017-10-01T22:12:54.462Z,91.10
2017-10-01T22:15:22.731Z,91.40
2017-10-01T22:17:50.980Z,92.20
2017-10-01T22:20:19.685Z,91.50
2017-10-01T22:22:47.945Z,91.50
2017-10-01T22:25:16.413Z,91.00
2017-10-01T22:27:45.617Z,90.90
2017-10-01T22:30:14.145Z,90.40
2017-10-01T22:32:42.559Z,90.10
2017-10-01T22:35:10.881Z,89.40
2017-10-01T22:37:39.156Z,89.00
2017-10-01T22:40:07.424Z,88.10
2017-10-01T22:42:36.100Z,89.00
2017-10-01T22:45:04.745Z,89.20
2017-10-01T22:47:33.097Z,89.20
2017-10-01T22:50:01.353Z,88.30
2017-10-01T22:52:29.604Z,88.50
2017-10-01T22:54:57.853Z,89.50
2017-10-01T22:57:26.110Z,90.10
2017-10-01T22:59:54.356Z,89.90
2017-10-01T23:02:22.663Z,89.40
2017-10-01T23:04:51.594Z,87.90
2017-10-01T23:07:19.865Z,88.30
2017-10-01T23:09:48.199Z,86.00
2017-10-01T23:12:16.476Z,84.00
2017-10-01T23:14:44.768Z,82.00
2017-10-01T23:17:13.092Z,80.40
2017-10-01T23:19:41.396Z,79.10
2017-10-01T23:22:09.676Z,77.30
2017-10-01T23:24:38.017Z,76.30
2017-10-01T23:27:06.277Z,74.80
2017-10-01T23:29:34.544Z,73.40
2017-10-01T23:32:02.861Z,71.80
2017-10-01T23:34:31.108Z,72.70
2017-10-01T23:36:59.393Z,71.80
2017-10-01T23:39:27.712Z,72.80
2017-10-01T23:41:55.974Z,72.10
2017-10-01T23:44:24.264Z,71.60
2017-10-01T23:46:52.643Z,71.20
2017-10-01T23:49:20.935Z,71.40
2017-10-01T23:51:49.241Z,72.50
2017-10-01T23:54:17.517Z,74.30
2017-10-01T23:56:46.052Z,75.40
2017-10-01T23:59:14.349Z,76.10
